Time;durP1;ratioP1;P1;durP2;ratioP2;P2;SDS_P1;SDS_P2;PMS_P1;PMS_P2;Temp;Humidity;BMP_temperature;BMP_pressure;BME280_temperature;BME280_humidity;BME280_pressure;Samples;Min_cycle;Max_cycle;Signal;HPM_P1;HPM_P2
2021/12/15 00:01:53;;;;;;;137.60;55.65;;;;;;;;;;5033045;28;20022;-40
2021/12/15 00:04:19;;;;;;;149.30;54.63;;;;;;;;;;5033090;28;20022;-39
2021/12/15 00:06:48;;;;;;;146.68;53.55;;;;;;;;;;5032971;28;20071;-39
2021/12/15 00:09:14;;;;;;;142.52;55.50;;;;;;;;;;5032932;28;20021;-39
2021/12/15 00:11:41;;;;;;;148.00;59.42;;;;;;;;;;5032902;28;20491;-38
2021/12/15 00:14:09;;;;;;;123.20;53.10;;;;;;;;;;5032838;28;20044;-38
2021/12/15 00:16:41;;;;;;;106.20;43.00;;;;;;;;;;5032771;28;20057;-38
2021/12/15 00:19:12;;;;;;;88.10;43.00;;;;;;;;;;5032904;28;20040;-39
2021/12/15 00:21:38;;;;;;;93.20;43.53;;;;;;;;;;5036908;28;20392;-40
2021/12/15 00:24:06;;;;;;;83.07;41.42;;;;;;;;;;5036655;28;20397;-40
2021/12/15 00:26:32;;;;;;;100.80;48.10;;;;;;;;;;5036597;28;20373;-39
2021/12/15 00:28:59;;;;;;;68.55;35.10;;;;;;;;;;5036594;28;20477;-39
2021/12/15 00:31:28;;;;;;;68.80;34.00;;;;;;;;;;5036616;28;20029;-39
2021/12/15 00:33:56;;;;;;;64.88;32.53;;;;;;;;;;5036557;28;20072;-39
2021/12/15 00:36:22;;;;;;;79.68;37.63;;;;;;;;;;5036472;28;20473;-38
2021/12/15 00:38:51;;;;;;;86.32;41.72;;;;;;;;;;5036340;28;20030;-39
2021/12/15 00:41:17;;;;;;;65.10;32.00;;;;;;;;;;5036251;28;20155;-40
2021/12/15 00:43:45;;;;;;;66.57;32.83;;;;;;;;;;5036302;28;20454;-39
2021/12/15 00:46:14;;;;;;;67.68;33.75;;;;;;;;;;5036267;28;20029;-40
2021/12/15 00:48:43;;;;;;;71.45;34.80;;;;;;;;;;5036258;28;20097;-39
2021/12/15 00:51:11;;;;;;;76.82;38.88;;;;;;;;;;5036262;28;20037;-39
2021/12/15 00:53:40;;;;;;;75.45;37.75;;;;;;;;;;5036036;28;20017;-40
2021/12/15 00:56:06;;;;;;;77.28;37.78;;;;;;;;;;5036009;28;20032;-39
2021/12/15 00:58:34;;;;;;;74.00;37.33;;;;;;;;;;5036015;28;20015;-39
2021/12/15 01:01:01;;;;;;;84.95;42.17;;;;;;;;;;5035948;28;20044;-39
2021/12/15 01:03:29;;;;;;;76.00;35.78;;;;;;;;;;5035985;28;20084;-38
2021/12/15 01:05:59;;;;;;;72.57;34.63;;;;;;;;;;5035942;28;20362;-40
2021/12/15 01:08:27;;;;;;;75.32;33.25;;;;;;;;;;5035781;28;20031;-38
2021/12/15 01:21:50;;;;;;;96.38;40.50;;;;;;;;;;5035980;28;20044;-41
2021/12/15 01:24:17;;;;;;;87.00;37.72;;;;;;;;;;5035606;28;20057;-43
2021/12/15 01:26:43;;;;;;;74.10;31.30;;;;;;;;;;5035580;28;20071;-40
2021/12/15 01:29:11;;;;;;;78.18;34.05;;;;;;;;;;5035614;28;20026;-39
2021/12/15 01:31:37;;;;;;;76.60;32.78;;;;;;;;;;5034524;28;20022;-39
2021/12/15 01:34:03;;;;;;;79.75;36.03;;;;;;;;;;5035556;28;20044;-50
2021/12/15 01:36:29;;;;;;;67.82;29.73;;;;;;;;;;5035667;28;20029;-49
2021/12/15 01:39:06;;;;;;;73.20;33.60;;;;;;;;;;5035344;28;20041;-48
2021/12/15 01:41:32;;;;;;;69.30;30.60;;;;;;;;;;5035489;28;20048;-47
2021/12/15 01:47:03;;;;;;;82.10;32.53;;;;;;;;;;5034246;28;20048;-47
2021/12/15 01:49:31;;;;;;;79.40;33.00;;;;;;;;;;5035379;28;20029;-48
2021/12/15 01:51:59;;;;;;;87.95;37.17;;;;;;;;;;5035206;28;20116;-47
2021/12/15 01:54:27;;;;;;;89.97;35.95;;;;;;;;;;5035011;28;20028;-45
2021/12/15 01:56:53;;;;;;;79.75;32.28;;;;;;;;;;5034999;28;20068;-44
2021/12/15 01:59:21;;;;;;;94.03;39.97;;;;;;;;;;5034890;28;20065;-46
2021/12/15 02:01:50;;;;;;;89.10;34.50;;;;;;;;;;5035004;28;20032;-48
2021/12/15 02:04:21;;;;;;;92.38;36.13;;;;;;;;;;5034943;28;20184;-48
2021/12/15 02:06:48;;;;;;;97.95;36.75;;;;;;;;;;5034973;28;20021;-47
2021/12/15 02:09:21;;;;;;;88.03;36.05;;;;;;;;;;5034659;28;20033;-48
2021/12/15 02:11:48;;;;;;;91.68;37.60;;;;;;;;;;5034761;28;20083;-46
2021/12/15 02:14:16;;;;;;;90.60;36.83;;;;;;;;;;5034727;28;20022;-47
2021/12/15 02:16:47;;;;;;;88.10;33.55;;;;;;;;;;5034563;28;20052;-49
2021/12/15 02:19:13;;;;;;;86.90;34.33;;;;;;;;;;5034591;28;20068;-48
2021/12/15 02:21:40;;;;;;;88.78;35.85;;;;;;;;;;5034585;28;20761;-49
2021/12/15 02:24:09;;;;;;;109.28;42.58;;;;;;;;;;5034430;28;20048;-47
2021/12/15 02:26:39;;;;;;;88.68;34.90;;;;;;;;;;5034580;28;20044;-45
2021/12/15 02:29:14;;;;;;;90.90;36.00;;;;;;;;;;5034661;28;20098;-47
2021/12/15 02:39:42;;;;;;;92.43;38.08;;;;;;;;;;5034126;28;20048;-48
2021/12/15 02:42:09;;;;;;;87.10;34.47;;;;;;;;;;5034263;28;20087;-42
2021/12/15 02:44:35;;;;;;;87.65;36.83;;;;;;;;;;5034115;28;20386;-48
2021/12/15 02:47:01;;;;;;;82.55;34.20;;;;;;;;;;5033136;28;20060;-44
2021/12/15 02:49:33;;;;;;;74.72;31.10;;;;;;;;;;5033995;28;20079;-47
2021/12/15 02:52:01;;;;;;;;;;;;;;;;;;5034389;28;20463;-46
2021/12/15 02:54:28;;;;;;;79.63;35.47;;;;;;;;;;5033952;28;19905;-48
2021/12/15 02:57:04;;;;;;;81.10;35.50;;;;;;;;;;5033904;28;20036;-49
2021/12/15 02:59:39;;;;;;;78.15;33.70;;;;;;;;;;5033783;28;20052;-48
2021/12/15 03:07:09;;;;;;;;;;;;;;;;;;5034440;28;20072;-38
2021/12/15 03:18:16;;;;;;;70.13;28.65;;;;;;;;;;5011613;28;20565;-45
2021/12/15 03:20:57;;;;;;;95.55;29.00;;;;;;;;;;5009853;28;20145;-40
2021/12/15 03:23:46;;;;;;;68.72;27.98;;;;;;;;;;5011742;28;20030;-47
2021/12/15 03:26:18;;;;;;;62.55;28.42;;;;;;;;;;5011526;28;20040;-43
2021/12/15 03:39:25;;;;;;;63.47;30.55;;;;;;;;;;5011517;28;20405;-39
2021/12/15 03:41:58;;;;;;;71.72;29.70;;;;;;;;;;5011382;28;20065;-39
2021/12/15 03:44:25;;;;;;;64.70;28.98;;;;;;;;;;5011294;28;20548;-40
2021/12/15 03:46:53;;;;;;;67.72;31.60;;;;;;;;;;5011587;28;20141;-39
2021/12/15 03:49:19;;;;;;;60.90;26.38;;;;;;;;;;5011534;28;20049;-39
2021/12/15 03:51:46;;;;;;;56.35;25.63;;;;;;;;;;5011474;28;20541;-39
2021/12/15 03:54:12;;;;;;;69.57;27.20;;;;;;;;;;5021166;28;20103;-40
2021/12/15 03:56:43;;;;;;;59.75;26.60;;;;;;;;;;5037196;28;20087;-41
2021/12/15 03:59:09;;;;;;;67.95;26.58;;;;;;;;;;5037409;28;20044;-40
2021/12/15 04:01:38;;;;;;;119.25;27.02;;;;;;;;;;5037329;28;20461;-39
2021/12/15 04:04:10;;;;;;;87.00;27.85;;;;;;;;;;5037127;28;20060;-40
2021/12/15 04:06:36;;;;;;;;;;;;;;;;;;5037632;28;20100;-37
2021/12/15 04:09:03;;;;;;;67.30;26.33;;;;;;;;;;5037009;28;19952;-40
2021/12/15 04:11:34;;;;;;;74.93;26.92;;;;;;;;;;5036932;28;20389;-39
2021/12/15 04:14:02;;;;;;;59.83;26.73;;;;;;;;;;5036810;28;20026;-39
2021/12/15 04:18:57;;;;;;;65.78;25.98;;;;;;;;;;5037031;28;20055;-40
2021/12/15 04:21:28;;;;;;;195.43;27.63;;;;;;;;;;5036639;28;20045;-40
2021/12/15 04:23:58;;;;;;;57.83;24.10;;;;;;;;;;5036814;28;20511;-40
2021/12/15 04:26:26;;;;;;;57.72;26.73;;;;;;;;;;5036823;28;20171;-39
2021/12/15 04:28:53;;;;;;;64.80;24.95;;;;;;;;;;5036734;28;20029;-39
2021/12/15 04:31:21;;;;;;;56.90;24.40;;;;;;;;;;5036619;28;20045;-39
2021/12/15 04:33:55;;;;;;;64.65;22.77;;;;;;;;;;5036484;28;20036;-46
2021/12/15 04:36:23;;;;;;;51.65;23.75;;;;;;;;;;5036616;28;20029;-41
2021/12/15 04:38:49;;;;;;;52.13;23.95;;;;;;;;;;5036444;28;20025;-45
2021/12/15 04:41:17;;;;;;;53.45;22.05;;;;;;;;;;5036304;28;20033;-39
2021/12/15 04:43:44;;;;;;;49.25;23.13;;;;;;;;;;5036306;28;20021;-39
2021/12/15 04:46:14;;;;;;;52.08;23.95;;;;;;;;;;5036371;28;20033;-43
2021/12/15 04:48:41;;;;;;;52.60;23.83;;;;;;;;;;5036274;28;20037;-40
2021/12/15 04:51:10;;;;;;;76.65;23.30;;;;;;;;;;5036212;28;20026;-40
2021/12/15 04:53:37;;;;;;;69.13;26.58;;;;;;;;;;5036294;28;20031;-46
2021/12/15 04:56:04;;;;;;;54.90;23.13;;;;;;;;;;5036122;28;20441;-52
2021/12/15 04:58:30;;;;;;;93.20;24.23;;;;;;;;;;5036229;28;20103;-45
2021/12/15 05:00:58;;;;;;;61.92;25.92;;;;;;;;;;5036487;28;20116;-51
2021/12/15 05:03:24;;;;;;;75.63;29.25;;;;;;;;;;5036029;28;20060;-47
2021/12/15 05:05:51;;;;;;;76.30;28.92;;;;;;;;;;5035013;28;20113;-46
2021/12/15 05:08:17;;;;;;;80.82;35.75;;;;;;;;;;5035419;28;20022;-47
2021/12/15 05:10:43;;;;;;;64.07;26.42;;;;;;;;;;5035918;28;20428;-45
2021/12/15 05:13:10;;;;;;;64.65;27.75;;;;;;;;;;5036045;28;20029;-44
2021/12/15 05:15:37;;;;;;;65.93;29.75;;;;;;;;;;5035662;28;20031;-47
2021/12/15 05:18:04;;;;;;;72.35;34.15;;;;;;;;;;5035803;28;20483;-46
2021/12/15 05:20:32;;;;;;;83.70;34.42;;;;;;;;;;5035490;28;20044;-47
2021/12/15 05:22:59;;;;;;;69.32;30.23;;;;;;;;;;5035796;28;20083;-48
2021/12/15 05:25:25;;;;;;;66.03;27.05;;;;;;;;;;5035558;28;20482;-43
2021/12/15 05:27:51;;;;;;;76.63;31.60;;;;;;;;;;5035633;28;20048;-45
2021/12/15 05:30:19;;;;;;;171.82;37.88;;;;;;;;;;5035496;28;20120;-48
2021/12/15 05:32:45;;;;;;;101.13;37.72;;;;;;;;;;5035314;28;20026;-45
2021/12/15 05:35:16;;;;;;;151.95;42.15;;;;;;;;;;5035401;28;20057;-46
2021/12/15 05:37:42;;;;;;;98.07;36.33;;;;;;;;;;5035425;28;20021;-47
2021/12/15 05:40:09;;;;;;;95.13;36.20;;;;;;;;;;5035196;28;20552;-48
2021/12/15 05:42:37;;;;;;;66.97;30.48;;;;;;;;;;5035464;28;20071;-48
2021/12/15 05:45:06;;;;;;;73.25;31.15;;;;;;;;;;5035228;28;20021;-47
2021/12/15 05:47:35;;;;;;;86.65;36.83;;;;;;;;;;5035451;28;20021;-48
2021/12/15 05:50:09;;;;;;;116.32;43.92;;;;;;;;;;5035124;28;20506;-48
2021/12/15 05:52:35;;;;;;;124.90;49.13;;;;;;;;;;5035396;28;20416;-46
2021/12/15 05:55:02;;;;;;;89.47;34.97;;;;;;;;;;5034957;28;20026;-45
2021/12/15 05:57:28;;;;;;;86.35;35.17;;;;;;;;;;5035455;28;20037;-49
2021/12/15 05:59:57;;;;;;;93.53;36.85;;;;;;;;;;5033955;28;20524;-45
2021/12/15 06:02:23;;;;;;;107.57;40.15;;;;;;;;;;5034980;28;20037;-47
2021/12/15 06:04:49;;;;;;;101.60;39.08;;;;;;;;;;5034813;28;20025;-45
2021/12/15 06:07:18;;;;;;;112.85;42.35;;;;;;;;;;5034854;28;20022;-47
2021/12/15 06:09:44;;;;;;;114.95;43.85;;;;;;;;;;5034846;28;20029;-47
2021/12/15 06:12:13;;;;;;;107.80;40.67;;;;;;;;;;5034699;28;20076;-47
2021/12/15 06:14:39;;;;;;;112.47;43.08;;;;;;;;;;5035035;28;20026;-45
2021/12/15 06:17:07;;;;;;;120.97;44.83;;;;;;;;;;5034250;28;20061;-48
2021/12/15 06:19:33;;;;;;;142.07;45.15;;;;;;;;;;5034504;28;20018;-45
2021/12/15 06:21:59;;;;;;;159.30;53.83;;;;;;;;;;5034539;28;20393;-47
2021/12/15 06:24:25;;;;;;;142.57;48.38;;;;;;;;;;5034697;28;20409;-47
2021/12/15 06:26:52;;;;;;;144.15;49.95;;;;;;;;;;5034411;28;20484;-44
2021/12/15 06:29:18;;;;;;;171.50;55.85;;;;;;;;;;5034644;28;20496;-42
2021/12/15 06:31:49;;;;;;;169.55;58.28;;;;;;;;;;5034396;28;20049;-48
2021/12/15 06:34:15;;;;;;;150.38;52.28;;;;;;;;;;5034392;28;20119;-47
2021/12/15 06:36:42;;;;;;;122.18;45.92;;;;;;;;;;5034320;28;20490;-47
2021/12/15 06:39:09;;;;;;;127.00;48.35;;;;;;;;;;5034293;28;20037;-38
2021/12/15 06:41:37;;;;;;;114.47;42.35;;;;;;;;;;5034145;28;20478;-39
2021/12/15 06:44:04;;;;;;;111.05;41.47;;;;;;;;;;5034195;28;20057;-39
2021/12/15 07:00:27;;;;;;;73.65;35.55;;;;;;;;;;5012350;28;20445;-39
2021/12/15 07:02:54;;;;;;;80.38;35.20;;;;;;;;;;5012369;28;20030;-44
2021/12/15 07:05:24;;;;;;;89.22;38.15;;;;;;;;;;5012010;28;20026;-47
2021/12/15 07:07:54;;;;;;;71.45;33.17;;;;;;;;;;5012031;28;20033;-46
2021/12/15 07:10:24;;;;;;;73.53;33.17;;;;;;;;;;5012056;28;20022;-42
2021/12/15 07:12:50;;;;;;;58.83;25.80;;;;;;;;;;5011907;28;20041;-45
2021/12/15 07:15:19;;;;;;;57.47;26.38;;;;;;;;;;5011853;28;20121;-46
2021/12/15 07:17:50;;;;;;;65.10;28.92;;;;;;;;;;5011922;28;20054;-44
2021/12/15 07:22:58;;;;;;;122.30;34.38;;;;;;;;;;5011795;28;20462;-46
2021/12/15 07:25:25;;;;;;;78.13;35.80;;;;;;;;;;5018534;28;20052;-44
2021/12/15 07:27:51;;;;;;;102.05;45.97;;;;;;;;;;5033494;28;20022;-48
2021/12/15 07:30:17;;;;;;;95.53;41.22;;;;;;;;;;5032682;28;20064;-40
2021/12/15 07:32:44;;;;;;;93.15;35.05;;;;;;;;;;5033504;28;20051;-40
2021/12/15 07:35:13;;;;;;;86.72;31.35;;;;;;;;;;5033362;28;20112;-39
2021/12/15 07:37:39;;;;;;;67.00;34.00;;;;;;;;;;5033435;28;20018;-44
2021/12/15 07:40:07;;;;;;;75.00;33.55;;;;;;;;;;5033461;28;20439;-42
2021/12/15 07:42:43;;;;;;;70.72;31.13;;;;;;;;;;5033439;28;20025;-40
2021/12/15 07:45:13;;;;;;;67.65;30.27;;;;;;;;;;5033344;28;20048;-40
2021/12/15 07:47:39;;;;;;;65.47;30.90;;;;;;;;;;5033356;28;20053;-39
2021/12/15 07:50:06;;;;;;;69.38;30.23;;;;;;;;;;5033267;28;20123;-41
2021/12/15 07:52:32;;;;;;;66.65;30.80;;;;;;;;;;5033366;28;20026;-46
2021/12/15 07:54:58;;;;;;;55.55;26.60;;;;;;;;;;5033283;28;20021;-39
2021/12/15 07:57:28;;;;;;;67.15;28.00;;;;;;;;;;5033091;28;20466;-39
2021/12/15 07:59:56;;;;;;;90.18;33.53;;;;;;;;;;5033587;28;20404;-41
2021/12/15 08:02:23;;;;;;;70.05;33.00;;;;;;;;;;5033092;28;20030;-40
2021/12/15 08:04:51;;;;;;;78.70;36.28;;;;;;;;;;5033508;28;20022;-39
2021/12/15 08:07:20;;;;;;;78.80;38.15;;;;;;;;;;5033326;28;20113;-42
2021/12/15 08:09:49;;;;;;;68.53;31.42;;;;;;;;;;5033358;28;20056;-48
2021/12/15 08:12:15;;;;;;;79.00;35.80;;;;;;;;;;5032000;28;20028;-48
2021/12/15 08:14:41;;;;;;;106.20;41.88;;;;;;;;;;5033364;28;20087;-40
2021/12/15 08:17:07;;;;;;;92.70;38.35;;;;;;;;;;5032834;28;20069;-45
2021/12/15 08:19:33;;;;;;;66.30;31.08;;;;;;;;;;5033017;28;20033;-41
2021/12/15 08:21:59;;;;;;;59.15;29.05;;;;;;;;;;5032881;28;20478;-41
2021/12/15 08:24:25;;;;;;;51.03;26.30;;;;;;;;;;5032968;28;20458;-40
2021/12/15 08:26:52;;;;;;;64.30;29.67;;;;;;;;;;5032940;28;20025;-40
2021/12/15 08:29:21;;;;;;;66.50;30.45;;;;;;;;;;5032834;28;20050;-40
2021/12/15 08:31:47;;;;;;;76.45;34.53;;;;;;;;;;5032921;28;20048;-40
2021/12/15 08:34:16;;;;;;;85.68;39.03;;;;;;;;;;5032944;28;20105;-40
2021/12/15 08:36:42;;;;;;;87.00;38.90;;;;;;;;;;5032792;28;20084;-40
2021/12/15 08:39:09;;;;;;;92.03;41.08;;;;;;;;;;5031465;28;20565;-40
2021/12/15 08:41:38;;;;;;;77.78;36.15;;;;;;;;;;5034938;28;20048;-42
2021/12/15 08:44:06;;;;;;;74.53;35.28;;;;;;;;;;5036495;28;20037;-39
2021/12/15 08:46:38;;;;;;;88.80;40.42;;;;;;;;;;5036394;28;20037;-39
2021/12/15 08:49:05;;;;;;;91.28;42.50;;;;;;;;;;5036562;28;20025;-40
2021/12/15 08:51:31;;;;;;;98.78;45.15;;;;;;;;;;5036370;28;20032;-41
2021/12/15 08:53:59;;;;;;;146.63;56.45;;;;;;;;;;5036318;28;20021;-40
2021/12/15 08:56:26;;;;;;;146.48;60.13;;;;;;;;;;5036095;28;20429;-40
2021/12/15 08:58:53;;;;;;;136.48;55.70;;;;;;;;;;5036325;28;20465;-40
2021/12/15 09:01:19;;;;;;;146.68;59.42;;;;;;;;;;5035907;28;20032;-38
2021/12/15 09:03:48;;;;;;;145.07;58.88;;;;;;;;;;5036126;28;20045;-38
2021/12/15 09:06:15;;;;;;;153.90;65.95;;;;;;;;;;5036132;28;20405;-41
2021/12/15 09:08:45;;;;;;;160.15;66.00;;;;;;;;;;5036074;28;20022;-40
2021/12/15 09:11:13;;;;;;;137.98;57.28;;;;;;;;;;5035892;28;20037;-42
2021/12/15 09:13:39;;;;;;;158.65;61.95;;;;;;;;;;5034915;28;20391;-40
2021/12/15 09:16:07;;;;;;;132.60;60.88;;;;;;;;;;5035588;28;20421;-40
2021/12/15 09:18:33;;;;;;;128.38;57.75;;;;;;;;;;5035829;28;20504;-40
2021/12/15 09:21:00;;;;;;;137.30;59.65;;;;;;;;;;5035668;28;20033;-41
2021/12/15 09:23:27;;;;;;;128.98;55.00;;;;;;;;;;5035922;28;20022;-41
2021/12/15 09:25:53;;;;;;;126.10;55.90;;;;;;;;;;5035530;28;20017;-40
2021/12/15 09:28:19;;;;;;;116.63;50.22;;;;;;;;;;5035698;28;20021;-43
2021/12/15 09:30:46;;;;;;;108.50;48.65;;;;;;;;;;5035478;28;20026;-40
2021/12/15 09:33:13;;;;;;;108.35;45.88;;;;;;;;;;5036002;28;20053;-40
2021/12/15 09:35:39;;;;;;;91.85;42.83;;;;;;;;;;5035509;28;20025;-41
2021/12/15 09:38:05;;;;;;;90.63;42.72;;;;;;;;;;5035516;28;20386;-40
2021/12/15 09:40:34;;;;;;;92.70;44.15;;;;;;;;;;5034071;28;20044;-44
2021/12/15 09:43:02;;;;;;;84.78;41.63;;;;;;;;;;5035323;28;20030;-39
2021/12/15 09:45:41;;;;;;;93.22;46.13;;;;;;;;;;5035567;28;20029;-42
2021/12/15 10:04:48;;;;;;;108.78;51.40;;;;;;;;;;5035337;28;20257;-40
2021/12/15 10:10:36;;;;;;;163.13;78.95;;;;;;;;;;5035177;28;20028;-40
2021/12/15 10:18:30;;;;;;;146.18;64.15;;;;;;;;;;5035042;28;20132;-40
2021/12/15 10:20:57;;;;;;;156.77;65.65;;;;;;;;;;5034656;28;20460;-41
2021/12/15 10:23:34;;;;;;;144.63;61.72;;;;;;;;;;5034688;28;20026;-41
2021/12/15 10:26:00;;;;;;;124.85;56.10;;;;;;;;;;5034584;28;20472;-40
2021/12/15 10:28:27;;;;;;;136.50;57.85;;;;;;;;;;5034678;28;20079;-41
2021/12/15 10:30:53;;;;;;;149.70;66.45;;;;;;;;;;5034516;28;20053;-40
2021/12/15 10:33:24;;;;;;;150.77;64.57;;;;;;;;;;5034602;28;20109;-41
2021/12/15 10:35:58;;;;;;;142.07;63.65;;;;;;;;;;5034287;28;20036;-42
2021/12/15 10:38:26;;;;;;;154.30;66.30;;;;;;;;;;5034299;28;20076;-42
2021/12/15 10:41:01;;;;;;;165.05;70.70;;;;;;;;;;5034331;28;20087;-40
2021/12/15 10:43:33;;;;;;;175.80;74.65;;;;;;;;;;5034380;28;20036;-39
2021/12/15 10:45:59;;;;;;;;;;;;;;;;;;5034493;28;20034;-39
2021/12/15 10:48:36;;;;;;;170.32;71.00;;;;;;;;;;5034140;28;19905;-44
2021/12/15 10:51:04;;;;;;;138.48;60.70;;;;;;;;;;5034122;28;20031;-40
2021/12/15 10:53:36;;;;;;;146.32;61.13;;;;;;;;;;5034345;28;20108;-40
2021/12/15 10:56:13;;;;;;;115.03;49.45;;;;;;;;;;5034025;28;20025;-43
2021/12/15 10:58:41;;;;;;;107.50;45.42;;;;;;;;;;5034117;28;20076;-46
2021/12/15 11:01:25;;;;;;;94.65;43.42;;;;;;;;;;5034392;28;20462;-45
2021/12/15 11:03:52;;;;;;;113.43;48.58;;;;;;;;;;5034267;28;20074;-46
2021/12/15 11:06:22;;;;;;;115.15;50.40;;;;;;;;;;5033949;28;20025;-45
2021/12/15 11:08:48;;;;;;;86.05;39.60;;;;;;;;;;5034242;28;20051;-44
2021/12/15 11:11:29;;;;;;;80.63;35.97;;;;;;;;;;5033802;28;20469;-40
2021/12/15 11:13:55;;;;;;;77.20;34.30;;;;;;;;;;5033901;28;20040;-40
2021/12/15 11:16:28;;;;;;;74.57;35.70;;;;;;;;;;5033541;28;20046;-40
2021/12/15 11:18:54;;;;;;;49.95;24.05;;;;;;;;;;5033814;28;20029;-40
2021/12/15 11:21:20;;;;;;;67.68;31.70;;;;;;;;;;5033778;28;20030;-41
2021/12/15 11:23:47;;;;;;;58.92;27.23;;;;;;;;;;5033641;28;20099;-40
2021/12/15 11:26:16;;;;;;;64.50;30.65;;;;;;;;;;5033537;28;20028;-45
2021/12/15 11:28:44;;;;;;;68.45;31.33;;;;;;;;;;5033701;28;20025;-46
2021/12/15 11:31:12;;;;;;;69.10;33.10;;;;;;;;;;5033467;28;20477;-42
2021/12/15 11:33:48;;;;;;;71.15;35.75;;;;;;;;;;5033988;28;20029;-42
2021/12/15 11:36:14;;;;;;;71.97;34.35;;;;;;;;;;5033581;28;20030;-45
2021/12/15 11:38:51;;;;;;;73.70;35.03;;;;;;;;;;5033622;28;20021;-44
2021/12/15 11:41:25;;;;;;;75.25;36.38;;;;;;;;;;5033272;28;20038;-43
2021/12/15 11:43:54;;;;;;;91.60;45.10;;;;;;;;;;5033386;28;20030;-43
2021/12/15 11:46:26;;;;;;;92.07;44.70;;;;;;;;;;5033285;28;20040;-47
2021/12/15 11:48:58;;;;;;;68.95;36.20;;;;;;;;;;5033296;28;20040;-46
2021/12/15 11:51:32;;;;;;;56.17;30.05;;;;;;;;;;5033434;28;20589;-42
2021/12/15 11:54:00;;;;;;;59.50;32.53;;;;;;;;;;5033464;28;20029;-44
2021/12/15 11:56:29;;;;;;;55.35;30.60;;;;;;;;;;5033242;28;20109;-41
2021/12/15 11:59:01;;;;;;;55.30;31.08;;;;;;;;;;5033532;28;20022;-40
2021/12/15 12:01:38;;;;;;;72.43;39.95;;;;;;;;;;5033211;28;20076;-41
2021/12/15 12:04:11;;;;;;;62.67;34.42;;;;;;;;;;5031798;28;20385;-39
2021/12/15 12:06:37;;;;;;;52.85;29.92;;;;;;;;;;5033354;28;20351;-41
2021/12/15 12:09:03;;;;;;;58.60;32.33;;;;;;;;;;5033302;28;20025;-40
2021/12/15 12:11:33;;;;;;;70.13;36.10;;;;;;;;;;5033112;28;20377;-41
2021/12/15 12:14:00;;;;;;;50.75;27.30;;;;;;;;;;5033355;28;20056;-46
2021/12/15 12:16:26;;;;;;;54.63;30.17;;;;;;;;;;5034944;28;20060;-43
2021/12/15 12:18:52;;;;;;;76.03;38.45;;;;;;;;;;5036860;28;20025;-43
2021/12/15 12:21:20;;;;;;;69.05;35.85;;;;;;;;;;5037267;28;20105;-43
2021/12/15 12:23:49;;;;;;;74.50;36.10;;;;;;;;;;5036939;28;20152;-41
2021/12/15 12:26:16;;;;;;;83.20;44.75;;;;;;;;;;5036732;28;20040;-45
2021/12/15 12:28:43;;;;;;;80.45;40.15;;;;;;;;;;5037181;28;20025;-39
2021/12/15 12:31:14;;;;;;;99.65;50.40;;;;;;;;;;5036804;28;20080;-41
2021/12/15 12:33:44;;;;;;;117.13;58.65;;;;;;;;;;5036671;28;20034;-40
2021/12/15 12:36:16;;;;;;;81.03;40.92;;;;;;;;;;5036710;28;20044;-40
2021/12/15 12:38:50;;;;;;;63.92;33.78;;;;;;;;;;5036723;28;20036;-42
2021/12/15 12:41:24;;;;;;;77.55;37.63;;;;;;;;;;5036400;28;20025;-44
2021/12/15 12:43:54;;;;;;;52.45;29.27;;;;;;;;;;5035294;28;20026;-42
2021/12/15 12:46:24;;;;;;;59.38;31.55;;;;;;;;;;5036647;28;20026;-43
2021/12/15 13:00:17;;;;;;;56.95;32.03;;;;;;;;;;5036721;28;20037;-40
2021/12/15 13:02:48;;;;;;;68.55;36.13;;;;;;;;;;5036143;28;20033;-41
2021/12/15 13:05:32;;;;;;;77.28;41.40;;;;;;;;;;5036447;28;20113;-43
2021/12/15 13:08:03;;;;;;;82.35;44.85;;;;;;;;;;5036173;28;20032;-41
2021/12/15 13:10:48;;;;;;;69.77;39.17;;;;;;;;;;5036028;28;20025;-43
2021/12/15 13:13:15;;;;;;;74.13;41.25;;;;;;;;;;5035833;28;20266;-40
2021/12/15 13:15:44;;;;;;;72.43;40.85;;;;;;;;;;5035801;28;20033;-41
2021/12/15 13:18:13;;;;;;;89.70;46.13;;;;;;;;;;5036180;28;20044;-41
2021/12/15 13:20:40;;;;;;;94.15;48.70;;;;;;;;;;5035911;28;20021;-44
2021/12/15 13:23:28;;;;;;;92.35;49.85;;;;;;;;;;5035773;28;20029;-44
2021/12/15 13:28:45;;;;;;;115.13;55.25;;;;;;;;;;5034392;28;20043;-40
2021/12/15 13:31:23;;;;;;;101.68;54.63;;;;;;;;;;5035942;28;20068;-43
2021/12/15 13:33:53;;;;;;;118.40;59.78;;;;;;;;;;5035476;28;20108;-44
2021/12/15 13:36:27;;;;;;;114.50;58.92;;;;;;;;;;5035649;28;20055;-41
2021/12/15 13:39:02;;;;;;;108.65;55.22;;;;;;;;;;5035476;28;20401;-40
2021/12/15 13:41:38;;;;;;;107.90;55.97;;;;;;;;;;5035546;28;20083;-41
2021/12/15 13:44:24;;;;;;;137.18;69.88;;;;;;;;;;5035564;28;20454;-47
2021/12/15 13:46:59;;;;;;;133.70;67.45;;;;;;;;;;5035386;28;20033;-49
2021/12/15 13:49:34;;;;;;;140.50;69.75;;;;;;;;;;5035335;28;20033;-41
2021/12/15 13:52:02;;;;;;;122.15;61.15;;;;;;;;;;5035509;28;20022;-49
2021/12/15 13:54:36;;;;;;;117.18;59.65;;;;;;;;;;5035460;28;20021;-44
2021/12/15 13:57:14;;;;;;;109.88;58.83;;;;;;;;;;5035226;28;20060;-42
2021/12/15 13:59:43;;;;;;;116.68;62.33;;;;;;;;;;5035326;28;20041;-41
2021/12/15 14:02:15;;;;;;;133.35;70.78;;;;;;;;;;5034998;28;20041;-43
2021/12/15 14:04:48;;;;;;;128.27;67.82;;;;;;;;;;5035151;28;20428;-41
2021/12/15 14:07:33;;;;;;;138.75;70.53;;;;;;;;;;5035014;28;20036;-42
2021/12/15 14:10:24;;;;;;;149.10;75.90;;;;;;;;;;5034895;28;20029;-40
2021/12/15 14:12:56;;;;;;;152.63;76.90;;;;;;;;;;5027743;28;20034;-40
2021/12/15 14:15:25;;;;;;;143.00;70.50;;;;;;;;;;5035011;28;20025;-40
2021/12/15 14:18:12;;;;;;;126.80;66.38;;;;;;;;;;5034641;28;20053;-42
2021/12/15 14:20:41;;;;;;;109.72;57.58;;;;;;;;;;5034635;28;20028;-46
2021/12/15 14:23:12;;;;;;;108.95;57.95;;;;;;;;;;5034669;28;20112;-42
2021/12/15 14:25:39;;;;;;;120.13;60.60;;;;;;;;;;5034737;28;20013;-42
2021/12/15 14:28:06;;;;;;;108.80;55.28;;;;;;;;;;5034622;28;20104;-46
2021/12/15 14:30:37;;;;;;;101.63;55.60;;;;;;;;;;5034619;28;20536;-41
2021/12/15 14:33:03;;;;;;;108.95;55.30;;;;;;;;;;5034386;28;20053;-44
2021/12/15 14:35:29;;;;;;;104.95;56.75;;;;;;;;;;5034391;28;20029;-39
2021/12/15 14:37:55;;;;;;;99.55;54.13;;;;;;;;;;5034539;28;20091;-43
2021/12/15 14:40:22;;;;;;;98.57;55.42;;;;;;;;;;5034239;28;20100;-46
2021/12/15 14:42:50;;;;;;;97.55;54.45;;;;;;;;;;5032567;28;20520;-46
2021/12/15 14:45:17;;;;;;;105.00;56.25;;;;;;;;;;5033118;28;20093;-44
2021/12/15 14:47:44;;;;;;;114.30;61.45;;;;;;;;;;5033639;28;20516;-45
2021/12/15 14:50:13;;;;;;;114.57;61.25;;;;;;;;;;5033392;28;20053;-44
2021/12/15 14:52:42;;;;;;;105.93;57.78;;;;;;;;;;5033760;28;20025;-41
2021/12/15 14:55:10;;;;;;;113.53;60.28;;;;;;;;;;5033032;28;20033;-41
2021/12/15 14:57:36;;;;;;;114.13;63.95;;;;;;;;;;5033015;28;20383;-42
2021/12/15 15:00:16;;;;;;;111.55;62.70;;;;;;;;;;5033450;28;20028;-42
2021/12/15 15:02:48;;;;;;;103.32;58.78;;;;;;;;;;5031459;28;20033;-46
2021/12/15 15:05:14;;;;;;;;;;;;;;;;;;5033600;28;20018;-41
2021/12/15 15:07:43;;;;;;;110.00;58.95;;;;;;;;;;5033497;28;20333;-49
2021/12/15 15:10:11;;;;;;;126.93;64.13;;;;;;;;;;5033368;28;20024;-42
2021/12/15 15:12:39;;;;;;;107.72;59.65;;;;;;;;;;5030612;28;20053;-45
2021/12/15 15:15:06;;;;;;;119.25;62.38;;;;;;;;;;5032197;28;20385;-44
2021/12/15 15:17:50;;;;;;;118.95;61.85;;;;;;;;;;5032857;28;20250;-41
2021/12/15 15:20:16;;;;;;;113.07;59.17;;;;;;;;;;5032976;28;20025;-44
2021/12/15 15:22:43;;;;;;;116.20;62.30;;;;;;;;;;5032997;28;20359;-41
2021/12/15 15:25:10;;;;;;;113.78;63.53;;;;;;;;;;5033016;28;20017;-39
2021/12/15 15:27:39;;;;;;;118.50;63.55;;;;;;;;;;5032930;28;20026;-46
2021/12/15 15:30:07;;;;;;;107.75;60.97;;;;;;;;;;5032577;28;20092;-45
2021/12/15 15:32:36;;;;;;;111.72;63.35;;;;;;;;;;5030464;28;20374;-43
2021/12/15 15:35:11;;;;;;;103.53;58.40;;;;;;;;;;5029411;28;20072;-42
2021/12/15 15:37:37;;;;;;;104.72;59.58;;;;;;;;;;5029163;28;20035;-39
2021/12/15 15:40:21;;;;;;;104.05;53.88;;;;;;;;;;5033266;28;20434;-40
2021/12/15 15:42:54;;;;;;;95.57;51.33;;;;;;;;;;5033291;28;20041;-41
2021/12/15 15:45:23;;;;;;;95.25;53.25;;;;;;;;;;5033255;28;20509;-40
2021/12/15 15:47:49;;;;;;;100.25;55.72;;;;;;;;;;5032143;28;20042;-42
2021/12/15 15:50:16;;;;;;;95.22;54.10;;;;;;;;;;5032968;28;20030;-41
2021/12/15 15:52:43;;;;;;;91.63;51.92;;;;;;;;;;5033341;28;20100;-44
2021/12/15 15:55:10;;;;;;;92.32;51.70;;;;;;;;;;5031988;28;20072;-40
2021/12/15 15:57:36;;;;;;;124.10;60.97;;;;;;;;;;5033188;28;20029;-42
2021/12/15 16:00:02;;;;;;;150.73;73.35;;;;;;;;;;5031895;28;20462;-41
2021/12/15 16:02:28;;;;;;;411.25;191.77;;;;;;;;;;5033221;28;20025;-49
2021/12/15 16:04:56;;;;;;;421.35;217.27;;;;;;;;;;5033196;28;20040;-44
2021/12/15 16:07:25;;;;;;;338.45;178.23;;;;;;;;;;5033013;28;20022;-43
2021/12/15 16:09:53;;;;;;;333.88;164.35;;;;;;;;;;5033044;28;20029;-41